sensor_id;sensor_type;location;lat;lon;timestamp;P1;durP1;ratioP1;P2;durP2;ratioP2
17151;SDS011;8691;50.828;4.700;2023-03-24T00:00:23;2.23;;;2.03;;
17151;SDS011;8691;50.828;4.700;2023-03-24T00:03:00;2.93;;;2.27;;
17151;SDS011;8691;50.828;4.700;2023-03-24T00:05:36;2.93;;;1.87;;
17151;SDS011;8691;50.828;4.700;2023-03-24T00:08:13;2.63;;;2.27;;
17151;SDS011;8691;50.828;4.700;2023-03-24T00:10:49;2.40;;;2.10;;
17151;SDS011;8691;50.828;4.700;2023-03-24T00:13:27;2.67;;;2.03;;
17151;SDS011;8691;50.828;4.700;2023-03-24T00:16:04;4.18;;;2.47;;
17151;SDS011;8691;50.828;4.700;2023-03-24T00:18:40;2.90;;;2.03;;
17151;SDS011;8691;50.828;4.700;2023-03-24T00:21:17;3.37;;;2.20;;
17151;SDS011;8691;50.828;4.700;2023-03-24T00:23:54;2.00;;;1.80;;
17151;SDS011;8691;50.828;4.700;2023-03-24T00:26:30;1.77;;;1.67;;
17151;SDS011;8691;50.828;4.700;2023-03-24T00:29:07;2.03;;;1.83;;
17151;SDS011;8691;50.828;4.700;2023-03-24T00:31:43;2.90;;;1.70;;
17151;SDS011;8691;50.828;4.700;2023-03-24T00:34:20;2.03;;;1.83;;
17151;SDS011;8691;50.828;4.700;2023-03-24T00:36:57;3.03;;;2.58;;
17151;SDS011;8691;50.828;4.700;2023-03-24T00:39:34;2.67;;;2.47;;
17151;SDS011;8691;50.828;4.700;2023-03-24T00:42:11;4.93;;;2.40;;
17151;SDS011;8691;50.828;4.700;2023-03-24T00:44:47;3.60;;;2.60;;
17151;SDS011;8691;50.828;4.700;2023-03-24T00:47:24;3.40;;;2.67;;
17151;SDS011;8691;50.828;4.700;2023-03-24T00:50:02;3.80;;;2.70;;
17151;SDS011;8691;50.828;4.700;2023-03-24T00:52:41;2.40;;;2.00;;
17151;SDS011;8691;50.828;4.700;2023-03-24T00:55:17;1.90;;;1.80;;
17151;SDS011;8691;50.828;4.700;2023-03-24T00:57:54;2.87;;;2.00;;
17151;SDS011;8691;50.828;4.700;2023-03-24T01:00:30;2.60;;;1.83;;
17151;SDS011;8691;50.828;4.700;2023-03-24T01:03:07;3.60;;;2.10;;
17151;SDS011;8691;50.828;4.700;2023-03-24T01:05:44;1.67;;;1.57;;
17151;SDS011;8691;50.828;4.700;2023-03-24T01:08:20;2.97;;;2.10;;
17151;SDS011;8691;50.828;4.700;2023-03-24T01:10:58;2.13;;;1.93;;
17151;SDS011;8691;50.828;4.700;2023-03-24T01:13:34;2.17;;;1.97;;
17151;SDS011;8691;50.828;4.700;2023-03-24T01:16:10;2.93;;;2.07;;
17151;SDS011;8691;50.828;4.700;2023-03-24T01:18:47;3.67;;;2.20;;
17151;SDS011;8691;50.828;4.700;2023-03-24T01:21:24;2.33;;;2.13;;
17151;SDS011;8691;50.828;4.700;2023-03-24T01:24:00;3.73;;;2.43;;
17151;SDS011;8691;50.828;4.700;2023-03-24T01:26:37;3.43;;;2.43;;
17151;SDS011;8691;50.828;4.700;2023-03-24T01:29:14;2.47;;;2.27;;
17151;SDS011;8691;50.828;4.700;2023-03-24T01:31:50;1.97;;;1.77;;
17151;SDS011;8691;50.828;4.700;2023-03-24T01:34:27;4.30;;;2.40;;
17151;SDS011;8691;50.828;4.700;2023-03-24T01:37:04;2.30;;;1.90;;
17151;SDS011;8691;50.828;4.700;2023-03-24T01:39:41;2.70;;;2.03;;
17151;SDS011;8691;50.828;4.700;2023-03-24T01:42:19;2.67;;;2.10;;
17151;SDS011;8691;50.828;4.700;2023-03-24T01:44:59;2.93;;;2.40;;
17151;SDS011;8691;50.828;4.700;2023-03-24T01:47:34;2.53;;;2.13;;
17151;SDS011;8691;50.828;4.700;2023-03-24T01:50:11;2.93;;;1.97;;
17151;SDS011;8691;50.828;4.700;2023-03-24T01:52:48;3.10;;;2.27;;
17151;SDS011;8691;50.828;4.700;2023-03-24T01:55:24;2.83;;;2.20;;
17151;SDS011;8691;50.828;4.700;2023-03-24T01:58:01;2.20;;;1.73;;
17151;SDS011;8691;50.828;4.700;2023-03-24T02:00:38;2.83;;;2.40;;
17151;SDS011;8691;50.828;4.700;2023-03-24T02:03:16;1.97;;;1.87;;
17151;SDS011;8691;50.828;4.700;2023-03-24T02:05:52;4.50;;;2.03;;
17151;SDS011;8691;50.828;4.700;2023-03-24T02:08:40;2.50;;;2.20;;
17151;SDS011;8691;50.828;4.700;2023-03-24T02:11:25;3.90;;;2.43;;
17151;SDS011;8691;50.828;4.700;2023-03-24T02:14:00;4.00;;;2.10;;
17151;SDS011;8691;50.828;4.700;2023-03-24T02:25:34;5.70;;;2.97;;
17151;SDS011;8691;50.828;4.700;2023-03-24T02:39:54;3.37;;;2.53;;
17151;SDS011;8691;50.828;4.700;2023-03-24T02:48:26;2.27;;;2.07;;
17151;SDS011;8691;50.828;4.700;2023-03-24T02:51:10;2.37;;;1.50;;
17151;SDS011;8691;50.828;4.700;2023-03-24T02:59:04;1.57;;;1.30;;
17151;SDS011;8691;50.828;4.700;2023-03-24T03:01:43;5.47;;;1.47;;
17151;SDS011;8691;50.828;4.700;2023-03-24T03:04:19;2.50;;;1.10;;
17151;SDS011;8691;50.828;4.700;2023-03-24T03:06:57;3.37;;;1.40;;
17151;SDS011;8691;50.828;4.700;2023-03-24T03:09:38;3.03;;;1.23;;
17151;SDS011;8691;50.828;4.700;2023-03-24T03:12:16;2.53;;;1.27;;
17151;SDS011;8691;50.828;4.700;2023-03-24T03:14:54;3.80;;;1.27;;
17151;SDS011;8691;50.828;4.700;2023-03-24T03:17:30;2.27;;;1.10;;
17151;SDS011;8691;50.828;4.700;2023-03-24T03:20:12;2.17;;;1.20;;
17151;SDS011;8691;50.828;4.700;2023-03-24T03:22:55;3.43;;;1.13;;
17151;SDS011;8691;50.828;4.700;2023-03-24T03:25:27;2.37;;;1.10;;
17151;SDS011;8691;50.828;4.700;2023-03-24T03:28:04;2.87;;;1.23;;
17151;SDS011;8691;50.828;4.700;2023-03-24T03:30:40;2.73;;;1.00;;
17151;SDS011;8691;50.828;4.700;2023-03-24T03:33:21;2.33;;;1.37;;
17151;SDS011;8691;50.828;4.700;2023-03-24T03:38:40;1.60;;;1.00;;
17151;SDS011;8691;50.828;4.700;2023-03-24T03:41:18;3.50;;;1.50;;
17151;SDS011;8691;50.828;4.700;2023-03-24T03:43:55;4.80;;;1.40;;
17151;SDS011;8691;50.828;4.700;2023-03-24T03:46:33;3.13;;;1.13;;
17151;SDS011;8691;50.828;4.700;2023-03-24T03:49:09;4.10;;;1.37;;
17151;SDS011;8691;50.828;4.700;2023-03-24T03:51:45;4.93;;;1.60;;
17151;SDS011;8691;50.828;4.700;2023-03-24T03:54:22;5.28;;;1.90;;
17151;SDS011;8691;50.828;4.700;2023-03-24T03:56:59;4.50;;;1.90;;
17151;SDS011;8691;50.828;4.700;2023-03-24T03:59:36;5.63;;;1.87;;
17151;SDS011;8691;50.828;4.700;2023-03-24T04:05:11;3.40;;;1.93;;
17151;SDS011;8691;50.828;4.700;2023-03-24T04:22:38;8.10;;;2.27;;
17151;SDS011;8691;50.828;4.700;2023-03-24T04:27:57;7.33;;;2.17;;
17151;SDS011;8691;50.828;4.700;2023-03-24T04:30:41;7.37;;;2.57;;
17151;SDS011;8691;50.828;4.700;2023-03-24T04:33:23;6.13;;;2.60;;
17151;SDS011;8691;50.828;4.700;2023-03-24T04:35:59;6.53;;;3.40;;
17151;SDS011;8691;50.828;4.700;2023-03-24T04:38:33;8.23;;;3.07;;
17151;SDS011;8691;50.828;4.700;2023-03-24T04:41:11;9.33;;;3.53;;
17151;SDS011;8691;50.828;4.700;2023-03-24T04:43:48;8.20;;;3.20;;
17151;SDS011;8691;50.828;4.700;2023-03-24T04:46:24;6.67;;;3.00;;
17151;SDS011;8691;50.828;4.700;2023-03-24T04:49:01;7.90;;;3.97;;
17151;SDS011;8691;50.828;4.700;2023-03-24T04:51:38;8.87;;;3.43;;
17151;SDS011;8691;50.828;4.700;2023-03-24T04:54:14;7.03;;;3.47;;
17151;SDS011;8691;50.828;4.700;2023-03-24T04:56:51;6.90;;;3.30;;
17151;SDS011;8691;50.828;4.700;2023-03-24T04:59:28;10.17;;;3.80;;
17151;SDS011;8691;50.828;4.700;2023-03-24T05:02:04;7.23;;;3.13;;
17151;SDS011;8691;50.828;4.700;2023-03-24T05:04:41;8.97;;;3.20;;
17151;SDS011;8691;50.828;4.700;2023-03-24T05:07:18;10.53;;;2.83;;
17151;SDS011;8691;50.828;4.700;2023-03-24T05:09:55;10.07;;;3.63;;
17151;SDS011;8691;50.828;4.700;2023-03-24T05:12:31;8.70;;;2.50;;
17151;SDS011;8691;50.828;4.700;2023-03-24T05:15:08;7.00;;;2.90;;
17151;SDS011;8691;50.828;4.700;2023-03-24T05:17:45;8.47;;;2.80;;
17151;SDS011;8691;50.828;4.700;2023-03-24T05:20:22;6.53;;;2.93;;
17151;SDS011;8691;50.828;4.700;2023-03-24T05:22:58;8.20;;;2.70;;
17151;SDS011;8691;50.828;4.700;2023-03-24T05:25:35;4.83;;;2.30;;
17151;SDS011;8691;50.828;4.700;2023-03-24T05:28:11;7.60;;;2.50;;
17151;SDS011;8691;50.828;4.700;2023-03-24T05:30:48;6.73;;;2.50;;
17151;SDS011;8691;50.828;4.700;2023-03-24T05:33:25;4.07;;;2.30;;
17151;SDS011;8691;50.828;4.700;2023-03-24T05:36:01;6.57;;;2.37;;
17151;SDS011;8691;50.828;4.700;2023-03-24T05:38:38;6.77;;;2.80;;
17151;SDS011;8691;50.828;4.700;2023-03-24T05:41:15;9.20;;;2.73;;
17151;SDS011;8691;50.828;4.700;2023-03-24T05:43:51;6.93;;;2.63;;
17151;SDS011;8691;50.828;4.700;2023-03-24T05:46:28;13.53;;;2.73;;
17151;SDS011;8691;50.828;4.700;2023-03-24T05:49:05;8.23;;;2.83;;
17151;SDS011;8691;50.828;4.700;2023-03-24T05:51:42;11.53;;;2.40;;
17151;SDS011;8691;50.828;4.700;2023-03-24T05:54:19;7.03;;;2.03;;
17151;SDS011;8691;50.828;4.700;2023-03-24T05:56:56;9.20;;;3.03;;
17151;SDS011;8691;50.828;4.700;2023-03-24T05:59:33;10.07;;;2.93;;
17151;SDS011;8691;50.828;4.700;2023-03-24T06:02:10;9.67;;;2.60;;
17151;SDS011;8691;50.828;4.700;2023-03-24T06:04:47;5.90;;;2.10;;
17151;SDS011;8691;50.828;4.700;2023-03-24T06:07:23;7.80;;;2.40;;
17151;SDS011;8691;50.828;4.700;2023-03-24T06:10:00;7.10;;;2.17;;
17151;SDS011;8691;50.828;4.700;2023-03-24T06:12:40;7.33;;;2.27;;
17151;SDS011;8691;50.828;4.700;2023-03-24T06:15:16;9.23;;;2.53;;
17151;SDS011;8691;50.828;4.700;2023-03-24T06:17:53;11.40;;;2.80;;
17151;SDS011;8691;50.828;4.700;2023-03-24T06:20:30;10.33;;;2.47;;
17151;SDS011;8691;50.828;4.700;2023-03-24T06:23:07;8.67;;;2.00;;
17151;SDS011;8691;50.828;4.700;2023-03-24T06:25:44;9.60;;;2.63;;
17151;SDS011;8691;50.828;4.700;2023-03-24T06:28:21;7.73;;;2.23;;
17151;SDS011;8691;50.828;4.700;2023-03-24T06:30:58;9.23;;;2.03;;
17151;SDS011;8691;50.828;4.700;2023-03-24T06:33:34;9.33;;;2.40;;
17151;SDS011;8691;50.828;4.700;2023-03-24T06:36:12;8.73;;;2.50;;
17151;SDS011;8691;50.828;4.700;2023-03-24T06:38:48;7.60;;;2.43;;
17151;SDS011;8691;50.828;4.700;2023-03-24T06:41:26;6.03;;;2.00;;
17151;SDS011;8691;50.828;4.700;2023-03-24T06:44:03;9.20;;;1.93;;
17151;SDS011;8691;50.828;4.700;2023-03-24T06:46:40;8.90;;;2.00;;
17151;SDS011;8691;50.828;4.700;2023-03-24T06:49:17;8.80;;;2.33;;
17151;SDS011;8691;50.828;4.700;2023-03-24T06:51:54;10.00;;;2.38;;
17151;SDS011;8691;50.828;4.700;2023-03-24T06:54:31;6.93;;;1.97;;
17151;SDS011;8691;50.828;4.700;2023-03-24T06:57:08;5.67;;;1.93;;
17151;SDS011;8691;50.828;4.700;2023-03-24T06:59:45;7.80;;;2.23;;
17151;SDS011;8691;50.828;4.700;2023-03-24T07:02:22;5.87;;;2.00;;
17151;SDS011;8691;50.828;4.700;2023-03-24T07:05:00;8.90;;;2.40;;
17151;SDS011;8691;50.828;4.700;2023-03-24T07:07:36;7.90;;;2.17;;
17151;SDS011;8691;50.828;4.700;2023-03-24T07:10:12;7.13;;;1.97;;
17151;SDS011;8691;50.828;4.700;2023-03-24T07:12:49;8.03;;;2.30;;
17151;SDS011;8691;50.828;4.700;2023-03-24T07:15:26;4.97;;;2.20;;
17151;SDS011;8691;50.828;4.700;2023-03-24T07:18:03;8.10;;;2.17;;
17151;SDS011;8691;50.828;4.700;2023-03-24T07:20:40;8.07;;;2.40;;
17151;SDS011;8691;50.828;4.700;2023-03-24T07:23:17;8.00;;;2.20;;
17151;SDS011;8691;50.828;4.700;2023-03-24T07:25:53;6.53;;;2.17;;
17151;SDS011;8691;50.828;4.700;2023-03-24T07:28:30;6.50;;;2.20;;
17151;SDS011;8691;50.828;4.700;2023-03-24T07:31:06;7.97;;;2.40;;
17151;SDS011;8691;50.828;4.700;2023-03-24T07:33:43;7.10;;;2.40;;
17151;SDS011;8691;50.828;4.700;2023-03-24T07:36:20;10.60;;;3.13;;
17151;SDS011;8691;50.828;4.700;2023-03-24T07:38:57;8.27;;;2.87;;
17151;SDS011;8691;50.828;4.700;2023-03-24T07:41:34;10.60;;;3.00;;
17151;SDS011;8691;50.828;4.700;2023-03-24T07:44:11;9.83;;;3.47;;
17151;SDS011;8691;50.828;4.700;2023-03-24T07:46:47;9.57;;;4.13;;
17151;SDS011;8691;50.828;4.700;2023-03-24T07:49:25;9.20;;;3.47;;
17151;SDS011;8691;50.828;4.700;2023-03-24T07:52:01;7.90;;;3.33;;
17151;SDS011;8691;50.828;4.700;2023-03-24T07:54:39;9.53;;;4.37;;
17151;SDS011;8691;50.828;4.700;2023-03-24T07:57:15;14.07;;;8.83;;
17151;SDS011;8691;50.828;4.700;2023-03-24T07:59:52;10.47;;;3.73;;
17151;SDS011;8691;50.828;4.700;2023-03-24T08:02:29;9.37;;;2.80;;
17151;SDS011;8691;50.828;4.700;2023-03-24T08:05:06;8.43;;;3.10;;
17151;SDS011;8691;50.828;4.700;2023-03-24T08:07:43;12.67;;;7.67;;
17151;SDS011;8691;50.828;4.700;2023-03-24T08:10:20;8.00;;;2.63;;
17151;SDS011;8691;50.828;4.700;2023-03-24T08:12:57;8.83;;;3.10;;
17151;SDS011;8691;50.828;4.700;2023-03-24T08:15:33;11.83;;;3.43;;
17151;SDS011;8691;50.828;4.700;2023-03-24T08:18:09;7.13;;;2.63;;
17151;SDS011;8691;50.828;4.700;2023-03-24T08:20:47;8.23;;;2.90;;
17151;SDS011;8691;50.828;4.700;2023-03-24T08:23:23;9.07;;;5.00;;
17151;SDS011;8691;50.828;4.700;2023-03-24T08:25:59;6.10;;;3.53;;
17151;SDS011;8691;50.828;4.700;2023-03-24T08:28:36;8.70;;;3.40;;
17151;SDS011;8691;50.828;4.700;2023-03-24T08:31:13;12.57;;;4.30;;
17151;SDS011;8691;50.828;4.700;2023-03-24T08:33:49;10.37;;;3.80;;
17151;SDS011;8691;50.828;4.700;2023-03-24T08:36:26;8.73;;;4.07;;
17151;SDS011;8691;50.828;4.700;2023-03-24T08:39:03;10.60;;;3.10;;
17151;SDS011;8691;50.828;4.700;2023-03-24T08:41:39;7.33;;;3.00;;
17151;SDS011;8691;50.828;4.700;2023-03-24T08:44:16;11.07;;;3.33;;
17151;SDS011;8691;50.828;4.700;2023-03-24T08:46:53;8.47;;;2.67;;
17151;SDS011;8691;50.828;4.700;2023-03-24T08:49:29;6.27;;;3.17;;
17151;SDS011;8691;50.828;4.700;2023-03-24T08:52:06;9.20;;;2.90;;
17151;SDS011;8691;50.828;4.700;2023-03-24T08:54:43;10.43;;;2.70;;
17151;SDS011;8691;50.828;4.700;2023-03-24T08:57:19;8.60;;;2.70;;
17151;SDS011;8691;50.828;4.700;2023-03-24T08:59:56;4.37;;;1.93;;
17151;SDS011;8691;50.828;4.700;2023-03-24T09:02:33;11.50;;;2.72;;
17151;SDS011;8691;50.828;4.700;2023-03-24T09:05:10;8.27;;;2.20;;
17151;SDS011;8691;50.828;4.700;2023-03-24T09:07:46;5.50;;;1.43;;
17151;SDS011;8691;50.828;4.700;2023-03-24T09:10:23;6.97;;;2.20;;
17151;SDS011;8691;50.828;4.700;2023-03-24T09:13:00;5.07;;;1.67;;
17151;SDS011;8691;50.828;4.700;2023-03-24T09:15:36;10.77;;;2.10;;
17151;SDS011;8691;50.828;4.700;2023-03-24T09:18:13;6.47;;;2.03;;
17151;SDS011;8691;50.828;4.700;2023-03-24T09:20:50;6.27;;;1.70;;
17151;SDS011;8691;50.828;4.700;2023-03-24T09:23:26;5.33;;;1.90;;
17151;SDS011;8691;50.828;4.700;2023-03-24T09:26:03;3.57;;;1.40;;
17151;SDS011;8691;50.828;4.700;2023-03-24T09:28:40;5.93;;;1.87;;
17151;SDS011;8691;50.828;4.700;2023-03-24T09:31:16;5.60;;;2.00;;
17151;SDS011;8691;50.828;4.700;2023-03-24T09:33:54;7.37;;;2.20;;
17151;SDS011;8691;50.828;4.700;2023-03-24T09:36:30;7.37;;;1.87;;
17151;SDS011;8691;50.828;4.700;2023-03-24T09:39:07;7.80;;;2.07;;
17151;SDS011;8691;50.828;4.700;2023-03-24T09:41:44;6.90;;;1.87;;
17151;SDS011;8691;50.828;4.700;2023-03-24T09:44:36;7.87;;;1.80;;
17151;SDS011;8691;50.828;4.700;2023-03-24T09:47:15;3.57;;;1.40;;
17151;SDS011;8691;50.828;4.700;2023-03-24T09:53:11;5.83;;;1.70;;
17151;SDS011;8691;50.828;4.700;2023-03-24T09:56:04;6.28;;;2.08;;
17151;SDS011;8691;50.828;4.700;2023-03-24T09:58:39;5.60;;;1.83;;
17151;SDS011;8691;50.828;4.700;2023-03-24T10:01:16;5.27;;;1.50;;
17151;SDS011;8691;50.828;4.700;2023-03-24T10:03:54;7.00;;;1.50;;
17151;SDS011;8691;50.828;4.700;2023-03-24T10:06:37;7.90;;;2.10;;
17151;SDS011;8691;50.828;4.700;2023-03-24T10:09:28;7.07;;;1.73;;
17151;SDS011;8691;50.828;4.700;2023-03-24T10:15:45;5.47;;;1.57;;
17151;SDS011;8691;50.828;4.700;2023-03-24T10:17:34;6.47;;;2.00;;
17151;SDS011;8691;50.828;4.700;2023-03-24T10:20:43;9.13;;;1.90;;
17151;SDS011;8691;50.828;4.700;2023-03-24T10:23:28;7.07;;;2.37;;
17151;SDS011;8691;50.828;4.700;2023-03-24T10:29:23;7.22;;;2.33;;
17151;SDS011;8691;50.828;4.700;2023-03-24T10:32:20;9.67;;;2.40;;
17151;SDS011;8691;50.828;4.700;2023-03-24T10:34:56;7.40;;;2.33;;
17151;SDS011;8691;50.828;4.700;2023-03-24T10:37:32;8.13;;;2.10;;
17151;SDS011;8691;50.828;4.700;2023-03-24T10:40:13;6.80;;;2.03;;
17151;SDS011;8691;50.828;4.700;2023-03-24T10:42:54;8.97;;;2.40;;
17151;SDS011;8691;50.828;4.700;2023-03-24T10:45:32;7.63;;;2.70;;
17151;SDS011;8691;50.828;4.700;2023-03-24T10:48:08;10.13;;;2.97;;
17151;SDS011;8691;50.828;4.700;2023-03-24T10:50:45;11.03;;;2.60;;
17151;SDS011;8691;50.828;4.700;2023-03-24T10:53:22;8.77;;;2.93;;
17151;SDS011;8691;50.828;4.700;2023-03-24T10:55:59;5.70;;;2.63;;
17151;SDS011;8691;50.828;4.700;2023-03-24T10:58:39;12.70;;;3.20;;
17151;SDS011;8691;50.828;4.700;2023-03-24T11:01:22;7.77;;;3.27;;
17151;SDS011;8691;50.828;4.700;2023-03-24T11:03:58;8.77;;;3.30;;
17151;SDS011;8691;50.828;4.700;2023-03-24T11:06:35;10.13;;;3.50;;
17151;SDS011;8691;50.828;4.700;2023-03-24T11:09:19;5.23;;;2.40;;
17151;SDS011;8691;50.828;4.700;2023-03-24T11:11:54;7.57;;;3.67;;
17151;SDS011;8691;50.828;4.700;2023-03-24T11:14:31;7.07;;;2.23;;
17151;SDS011;8691;50.828;4.700;2023-03-24T11:17:12;7.00;;;1.83;;
17151;SDS011;8691;50.828;4.700;2023-03-24T11:19:51;6.93;;;1.83;;
17151;SDS011;8691;50.828;4.700;2023-03-24T11:22:30;8.83;;;1.83;;
17151;SDS011;8691;50.828;4.700;2023-03-24T11:25:07;8.02;;;2.25;;
17151;SDS011;8691;50.828;4.700;2023-03-24T11:27:43;7.70;;;2.33;;
17151;SDS011;8691;50.828;4.700;2023-03-24T11:30:20;6.10;;;1.90;;
17151;SDS011;8691;50.828;4.700;2023-03-24T11:32:58;5.90;;;2.20;;
17151;SDS011;8691;50.828;4.700;2023-03-24T11:35:34;4.80;;;1.47;;
17151;SDS011;8691;50.828;4.700;2023-03-24T11:38:18;5.60;;;2.00;;
17151;SDS011;8691;50.828;4.700;2023-03-24T11:40:51;10.48;;;2.95;;
17151;SDS011;8691;50.828;4.700;2023-03-24T11:43:27;8.00;;;2.70;;
17151;SDS011;8691;50.828;4.700;2023-03-24T11:48:44;6.60;;;2.70;;
17151;SDS011;8691;50.828;4.700;2023-03-24T11:54:08;9.68;;;3.28;;
17151;SDS011;8691;50.828;4.700;2023-03-24T11:56:44;7.67;;;2.73;;
17151;SDS011;8691;50.828;4.700;2023-03-24T11:59:33;5.73;;;2.80;;
17151;SDS011;8691;50.828;4.700;2023-03-24T12:02:28;6.57;;;2.73;;
17151;SDS011;8691;50.828;4.700;2023-03-24T12:13:51;7.03;;;2.53;;
17151;SDS011;8691;50.828;4.700;2023-03-24T12:16:36;6.43;;;2.00;;
17151;SDS011;8691;50.828;4.700;2023-03-24T12:19:33;4.87;;;2.00;;
17151;SDS011;8691;50.828;4.700;2023-03-24T12:22:33;6.53;;;2.07;;
17151;SDS011;8691;50.828;4.700;2023-03-24T12:27:56;6.03;;;2.00;;
17151;SDS011;8691;50.828;4.700;2023-03-24T12:30:47;4.57;;;1.73;;
17151;SDS011;8691;50.828;4.700;2023-03-24T12:33:48;4.77;;;1.80;;
17151;SDS011;8691;50.828;4.700;2023-03-24T12:36:24;4.37;;;2.43;;
17151;SDS011;8691;50.828;4.700;2023-03-24T12:38:59;5.68;;;3.03;;
17151;SDS011;8691;50.828;4.700;2023-03-24T12:53:25;5.57;;;1.90;;
17151;SDS011;8691;50.828;4.700;2023-03-24T12:56:30;6.70;;;2.37;;
17151;SDS011;8691;50.828;4.700;2023-03-24T12:59:08;7.50;;;2.03;;
17151;SDS011;8691;50.828;4.700;2023-03-24T13:01:43;6.57;;;2.20;;
17151;SDS011;8691;50.828;4.700;2023-03-24T13:04:31;5.60;;;2.03;;
17151;SDS011;8691;50.828;4.700;2023-03-24T13:07:08;7.40;;;2.03;;
17151;SDS011;8691;50.828;4.700;2023-03-24T13:15:39;6.72;;;2.88;;
17151;SDS011;8691;50.828;4.700;2023-03-24T13:18:26;9.52;;;3.30;;
17151;SDS011;8691;50.828;4.700;2023-03-24T13:21:10;8.17;;;2.97;;
17151;SDS011;8691;50.828;4.700;2023-03-24T13:29:51;5.43;;;2.80;;
17151;SDS011;8691;50.828;4.700;2023-03-24T13:32:28;5.03;;;2.27;;
17151;SDS011;8691;50.828;4.700;2023-03-24T13:35:12;1.63;;;1.07;;
17151;SDS011;8691;50.828;4.700;2023-03-24T13:37:55;2.17;;;1.00;;
17151;SDS011;8691;50.828;4.700;2023-03-24T13:40:30;3.10;;;1.27;;
17151;SDS011;8691;50.828;4.700;2023-03-24T13:43:12;1.43;;;1.07;;
17151;SDS011;8691;50.828;4.700;2023-03-24T13:45:48;4.23;;;1.20;;
17151;SDS011;8691;50.828;4.700;2023-03-24T13:51:20;3.10;;;1.20;;
17151;SDS011;8691;50.828;4.700;2023-03-24T13:59:40;4.90;;;1.07;;
17151;SDS011;8691;50.828;4.700;2023-03-24T14:02:20;2.43;;;0.90;;
17151;SDS011;8691;50.828;4.700;2023-03-24T14:05:03;3.78;;;1.25;;
17151;SDS011;8691;50.828;4.700;2023-03-24T14:15:45;2.17;;;1.00;;
17151;SDS011;8691;50.828;4.700;2023-03-24T14:21:01;3.67;;;1.50;;
17151;SDS011;8691;50.828;4.700;2023-03-24T14:23:46;4.07;;;1.50;;
17151;SDS011;8691;50.828;4.700;2023-03-24T14:29:02;4.53;;;1.57;;
17151;SDS011;8691;50.828;4.700;2023-03-24T14:31:40;2.70;;;1.40;;
17151;SDS011;8691;50.828;4.700;2023-03-24T14:34:17;3.97;;;1.40;;
17151;SDS011;8691;50.828;4.700;2023-03-24T14:36:58;2.97;;;1.40;;
17151;SDS011;8691;50.828;4.700;2023-03-24T14:39:40;3.63;;;1.63;;
17151;SDS011;8691;50.828;4.700;2023-03-24T14:42:51;4.30;;;1.60;;
17151;SDS011;8691;50.828;4.700;2023-03-24T14:45:03;3.30;;;1.47;;
17151;SDS011;8691;50.828;4.700;2023-03-24T14:47:38;4.37;;;1.50;;
17151;SDS011;8691;50.828;4.700;2023-03-24T14:50:19;5.27;;;1.33;;
17151;SDS011;8691;50.828;4.700;2023-03-24T14:52:58;3.60;;;1.47;;
17151;SDS011;8691;50.828;4.700;2023-03-24T14:55:34;4.70;;;1.80;;
17151;SDS011;8691;50.828;4.700;2023-03-24T14:58:22;4.55;;;1.60;;
17151;SDS011;8691;50.828;4.700;2023-03-24T15:00:58;4.80;;;1.60;;
17151;SDS011;8691;50.828;4.700;2023-03-24T15:03:40;3.10;;;1.43;;
17151;SDS011;8691;50.828;4.700;2023-03-24T15:06:18;2.20;;;1.27;;
17151;SDS011;8691;50.828;4.700;2023-03-24T15:08:58;3.13;;;1.30;;
17151;SDS011;8691;50.828;4.700;2023-03-24T15:11:35;4.80;;;1.77;;
17151;SDS011;8691;50.828;4.700;2023-03-24T15:14:19;3.47;;;1.57;;
17151;SDS011;8691;50.828;4.700;2023-03-24T15:17:05;3.77;;;1.43;;
17151;SDS011;8691;50.828;4.700;2023-03-24T15:19:41;2.53;;;1.00;;
17151;SDS011;8691;50.828;4.700;2023-03-24T15:22:18;3.00;;;1.00;;
17151;SDS011;8691;50.828;4.700;2023-03-24T15:24:55;3.83;;;1.50;;
17151;SDS011;8691;50.828;4.700;2023-03-24T15:27:31;2.53;;;1.10;;
17151;SDS011;8691;50.828;4.700;2023-03-24T15:30:13;3.23;;;1.10;;
17151;SDS011;8691;50.828;4.700;2023-03-24T15:32:50;2.57;;;1.20;;
17151;SDS011;8691;50.828;4.700;2023-03-24T15:35:27;3.10;;;1.20;;
17151;SDS011;8691;50.828;4.700;2023-03-24T15:38:04;3.50;;;1.40;;
17151;SDS011;8691;50.828;4.700;2023-03-24T15:40:40;2.10;;;1.10;;
17151;SDS011;8691;50.828;4.700;2023-03-24T15:43:18;3.00;;;1.17;;
17151;SDS011;8691;50.828;4.700;2023-03-24T15:45:54;3.50;;;1.20;;
17151;SDS011;8691;50.828;4.700;2023-03-24T15:48:31;3.50;;;1.27;;
17151;SDS011;8691;50.828;4.700;2023-03-24T15:51:07;4.17;;;1.03;;
17151;SDS011;8691;50.828;4.700;2023-03-24T15:53:47;5.53;;;1.50;;
17151;SDS011;8691;50.828;4.700;2023-03-24T15:56:26;4.67;;;1.73;;
17151;SDS011;8691;50.828;4.700;2023-03-24T16:01:39;2.70;;;1.53;;
17151;SDS011;8691;50.828;4.700;2023-03-24T16:04:16;3.33;;;1.33;;
17151;SDS011;8691;50.828;4.700;2023-03-24T16:06:52;4.50;;;2.27;;
17151;SDS011;8691;50.828;4.700;2023-03-24T16:09:38;6.03;;;2.40;;
17151;SDS011;8691;50.828;4.700;2023-03-24T16:12:11;5.40;;;1.80;;
17151;SDS011;8691;50.828;4.700;2023-03-24T16:14:49;4.53;;;2.10;;
17151;SDS011;8691;50.828;4.700;2023-03-24T16:17:26;3.83;;;1.80;;
17151;SDS011;8691;50.828;4.700;2023-03-24T16:20:02;2.93;;;1.80;;
17151;SDS011;8691;50.828;4.700;2023-03-24T16:22:39;5.20;;;2.70;;
17151;SDS011;8691;50.828;4.700;2023-03-24T16:25:16;5.43;;;2.43;;
17151;SDS011;8691;50.828;4.700;2023-03-24T16:27:53;7.33;;;3.07;;
17151;SDS011;8691;50.828;4.700;2023-03-24T16:30:29;4.53;;;2.60;;
17151;SDS011;8691;50.828;4.700;2023-03-24T16:33:06;6.40;;;2.60;;
17151;SDS011;8691;50.828;4.700;2023-03-24T16:35:42;5.07;;;2.17;;
17151;SDS011;8691;50.828;4.700;2023-03-24T16:38:19;5.00;;;2.00;;
17151;SDS011;8691;50.828;4.700;2023-03-24T16:40:57;5.20;;;1.87;;
17151;SDS011;8691;50.828;4.700;2023-03-24T16:43:33;3.73;;;1.70;;
17151;SDS011;8691;50.828;4.700;2023-03-24T16:46:14;5.10;;;1.90;;
17151;SDS011;8691;50.828;4.700;2023-03-24T16:49:02;9.50;;;2.00;;
17151;SDS011;8691;50.828;4.700;2023-03-24T16:51:38;4.60;;;1.93;;
17151;SDS011;8691;50.828;4.700;2023-03-24T16:54:15;4.53;;;2.10;;
17151;SDS011;8691;50.828;4.700;2023-03-24T16:56:52;3.47;;;1.60;;
17151;SDS011;8691;50.828;4.700;2023-03-24T16:59:28;2.97;;;1.40;;
17151;SDS011;8691;50.828;4.700;2023-03-24T17:02:07;4.53;;;1.40;;
17151;SDS011;8691;50.828;4.700;2023-03-24T17:04:42;3.10;;;1.10;;
17151;SDS011;8691;50.828;4.700;2023-03-24T17:07:20;5.13;;;1.43;;
17151;SDS011;8691;50.828;4.700;2023-03-24T17:09:56;3.43;;;1.30;;
17151;SDS011;8691;50.828;4.700;2023-03-24T17:12:33;3.40;;;2.33;;
17151;SDS011;8691;50.828;4.700;2023-03-24T17:15:19;2.30;;;1.10;;
17151;SDS011;8691;50.828;4.700;2023-03-24T17:17:53;4.07;;;1.40;;
17151;SDS011;8691;50.828;4.700;2023-03-24T17:20:29;5.90;;;1.40;;
17151;SDS011;8691;50.828;4.700;2023-03-24T17:23:06;6.23;;;2.00;;
17151;SDS011;8691;50.828;4.700;2023-03-24T17:25:43;2.87;;;1.30;;
17151;SDS011;8691;50.828;4.700;2023-03-24T17:28:19;1.97;;;1.23;;
17151;SDS011;8691;50.828;4.700;2023-03-24T17:30:57;3.57;;;1.50;;
17151;SDS011;8691;50.828;4.700;2023-03-24T17:33:33;2.80;;;1.20;;
17151;SDS011;8691;50.828;4.700;2023-03-24T17:36:14;0.83;;;0.70;;
17151;SDS011;8691;50.828;4.700;2023-03-24T17:38:50;2.17;;;1.00;;
17151;SDS011;8691;50.828;4.700;2023-03-24T17:41:27;2.65;;;1.35;;
17151;SDS011;8691;50.828;4.700;2023-03-24T17:44:04;1.67;;;1.10;;
17151;SDS011;8691;50.828;4.700;2023-03-24T17:46:41;2.17;;;1.00;;
17151;SDS011;8691;50.828;4.700;2023-03-24T17:49:18;1.50;;;1.00;;
17151;SDS011;8691;50.828;4.700;2023-03-24T17:51:55;1.47;;;1.20;;
17151;SDS011;8691;50.828;4.700;2023-03-24T17:54:31;2.50;;;1.00;;
17151;SDS011;8691;50.828;4.700;2023-03-24T17:57:08;2.10;;;0.97;;
17151;SDS011;8691;50.828;4.700;2023-03-24T17:59:45;0.97;;;0.87;;
17151;SDS011;8691;50.828;4.700;2023-03-24T18:02:21;1.17;;;0.90;;
17151;SDS011;8691;50.828;4.700;2023-03-24T18:04:58;1.37;;;0.90;;
17151;SDS011;8691;50.828;4.700;2023-03-24T18:07:35;1.90;;;1.00;;
17151;SDS011;8691;50.828;4.700;2023-03-24T18:10:12;0.90;;;0.90;;
17151;SDS011;8691;50.828;4.700;2023-03-24T18:12:49;1.93;;;1.20;;
17151;SDS011;8691;50.828;4.700;2023-03-24T18:15:27;1.10;;;1.00;;